Time;durP1;ratioP1;P1;durP2;ratioP2;P2;SDS_P1;SDS_P2;PMS_P1;PMS_P2;Temp;Humidity;BMP_temperature;BMP_pressure;BME280_temperature;BME280_humidity;BME280_pressure;Samples;Min_cycle;Max_cycle;Signal;HPM_P1;HPM_P2
2023/05/11 00:01:06;;;;;;;4.20;3.30;;;;;;;7.92;63.59;96823.34;109086;1273;23097;-81
2023/05/11 00:03:37;;;;;;;4.70;3.10;;;;;;;7.92;63.92;96823.50;109097;1273;22648;-81
2023/05/11 00:06:09;;;;;;;6.20;3.10;;;;;;;7.92;63.95;96825.30;109103;1273;22491;-81
2023/05/11 00:08:40;;;;;;;3.20;2.70;;;;;;;7.93;64.03;96827.29;109110;1273;22592;-81
2023/05/11 00:11:11;;;;;;;4.70;3.00;;;;;;;7.92;64.15;96822.87;109114;1267;22556;-81
2023/05/11 00:13:42;;;;;;;4.50;3.20;;;;;;;7.91;64.42;96824.98;109117;1273;22511;-81
2023/05/11 00:16:13;;;;;;;4.60;2.90;;;;;;;7.88;64.53;96822.41;109124;1267;22516;-81
2023/05/11 00:18:44;;;;;;;3.30;2.80;;;;;;;7.83;64.91;96822.86;109084;1273;22631;-81
2023/05/11 00:21:15;;;;;;;5.50;3.00;;;;;;;7.77;65.27;96820.45;109090;1273;22617;-81
2023/05/11 00:23:45;;;;;;;4.70;3.30;;;;;;;7.71;65.51;96819.13;109064;1266;24203;-81
2023/05/11 00:26:16;;;;;;;4.70;3.20;;;;;;;7.70;66.03;96817.77;109117;1273;23852;-81
2023/05/11 00:28:47;;;;;;;3.80;2.90;;;;;;;7.71;66.09;96819.88;109165;1273;22564;-81
2023/05/11 00:31:18;;;;;;;4.70;3.00;;;;;;;7.69;66.01;96819.34;109066;1273;24359;-81
2023/05/11 00:33:49;;;;;;;5.40;3.00;;;;;;;7.71;66.25;96820.77;109130;1266;22511;-81
2023/05/11 00:36:20;;;;;;;4.00;2.90;;;;;;;7.61;66.06;96818.70;109103;1269;22525;-81
2023/05/11 00:38:51;;;;;;;3.90;2.70;;;;;;;7.48;66.26;96820.67;109101;1266;24259;-82
2023/05/11 00:41:22;;;;;;;5.00;3.60;;;;;;;7.43;66.43;96822.30;109095;1273;22584;-81
2023/05/11 00:43:53;;;;;;;5.20;3.60;;;;;;;7.46;66.48;96818.38;109102;1266;22932;-81
2023/05/11 00:46:25;;;;;;;4.70;3.10;;;;;;;7.45;66.51;96815.58;109060;1273;23811;-81
2023/05/11 00:48:56;;;;;;;2.90;2.20;;;;;;;7.42;66.67;96814.13;109100;1273;22646;-81
2023/05/11 00:51:27;;;;;;;3.50;2.80;;;;;;;7.31;66.62;96813.79;109075;1273;23252;-81
2023/05/11 00:53:59;;;;;;;4.10;2.60;;;;;;;7.23;66.92;96813.14;109132;1273;22633;-81
2023/05/11 00:56:30;;;;;;;3.80;2.50;;;;;;;7.12;67.16;96812.73;109061;1273;22516;-81
2023/05/11 00:59:01;;;;;;;3.10;2.40;;;;;;;7.06;67.57;96811.63;109153;1270;25521;-81
2023/05/11 01:01:31;;;;;;;6.40;3.20;;;;;;;7.05;67.89;96812.58;109093;1266;22679;-81
2023/05/11 01:04:03;;;;;;;4.70;3.20;;;;;;;7.12;67.67;96810.48;109076;1273;22539;-81
2023/05/11 01:06:45;;;;;;;5.50;3.10;;;;;;;7.19;67.85;96808.05;109115;1273;22505;-81
2023/05/11 01:09:27;;;;;;;4.60;3.00;;;;;;;7.25;67.77;96809.98;109120;1270;25395;-81
2023/05/11 01:12:13;;;;;;;5.20;3.30;;;;;;;7.34;68.12;96809.91;109058;1273;25446;-81
2023/05/11 01:14:54;;;;;;;4.80;3.30;;;;;;;7.45;67.88;96811.58;109094;1273;22515;-81
2023/05/11 01:17:36;;;;;;;5.00;3.10;;;;;;;7.53;67.49;96815.48;109142;1273;22592;-81
2023/05/11 01:20:15;;;;;;;4.80;2.70;;;;;;;7.56;67.38;96817.14;109122;1273;22546;-81
2023/05/11 01:23:17;;;;;;;3.60;2.80;;;;;;;7.47;67.26;96812.91;109094;1273;22465;-81
2023/05/11 01:26:17;;;;;;;3.90;2.50;;;;;;;7.43;67.15;96811.40;109091;1273;22551;-81
2023/05/11 01:29:13;;;;;;;4.10;3.10;;;;;;;7.45;67.06;96817.54;109087;1273;22608;-81
2023/05/11 01:31:47;;;;;;;4.50;3.10;;;;;;;7.40;66.85;96819.55;109081;1273;22559;-81
2023/05/11 01:34:22;;;;;;;4.40;2.70;;;;;;;7.37;66.95;96824.13;109107;1266;22566;-81
2023/05/11 01:36:58;;;;;;;4.80;2.80;;;;;;;7.29;66.81;96824.27;109109;1266;25271;-81
2023/05/11 01:39:35;;;;;;;3.40;2.20;;;;;;;7.17;66.69;96828.07;109076;1273;23310;-81
2023/05/11 01:42:09;;;;;;;3.80;2.80;;;;;;;7.13;66.67;96829.46;109058;1266;25494;-81
2023/05/11 01:44:44;;;;;;;3.60;2.40;;;;;;;7.11;66.72;96828.60;109132;1273;22538;-81
2023/05/11 01:47:16;;;;;;;6.10;2.40;;;;;;;7.08;66.84;96827.41;109113;1251;22552;-81
2023/05/11 01:49:47;;;;;;;4.30;2.80;;;;;;;7.04;66.60;96831.75;109120;1273;22479;-82
2023/05/11 01:52:20;;;;;;;3.10;2.20;;;;;;;6.86;66.52;96835.06;109091;1266;22520;-81
2023/05/11 01:54:54;;;;;;;3.50;2.60;;;;;;;6.59;66.30;96832.71;109050;1265;22513;-81
2023/05/11 01:57:27;;;;;;;2.90;1.80;;;;;;;6.42;67.20;96836.37;109139;1273;22518;-82
2023/05/11 01:59:59;;;;;;;4.30;2.50;;;;;;;6.45;67.78;96835.39;109089;1273;22571;-81
2023/05/11 02:02:31;;;;;;;3.50;2.20;;;;;;;6.53;67.94;96835.23;109103;1273;24231;-81
2023/05/11 02:05:05;;;;;;;3.90;2.70;;;;;;;6.55;68.04;96839.62;109073;1273;23332;-81
2023/05/11 02:07:38;;;;;;;3.80;2.80;;;;;;;6.45;68.04;96835.55;109039;1273;25498;-81
2023/05/11 02:10:12;;;;;;;2.90;2.10;;;;;;;6.40;68.38;96837.14;109121;1273;25266;-81
2023/05/11 02:12:45;;;;;;;2.10;1.90;;;;;;;6.43;68.56;96838.70;109146;1265;22530;-81
2023/05/11 02:15:17;;;;;;;5.00;2.20;;;;;;;6.51;68.69;96835.64;109132;1270;26165;-81
2023/05/11 02:17:48;;;;;;;4.20;2.50;;;;;;;6.58;68.76;96833.11;109112;1266;22518;-81
2023/05/11 02:20:19;;;;;;;3.30;2.50;;;;;;;6.59;68.51;96831.81;109070;1273;22530;-81
2023/05/11 02:22:51;;;;;;;4.80;2.80;;;;;;;6.60;68.71;96835.57;109101;1273;22497;-81
2023/05/11 02:25:24;;;;;;;3.90;2.60;;;;;;;6.63;68.67;96834.04;109114;1273;22626;-81
2023/05/11 02:27:55;;;;;;;4.60;2.50;;;;;;;6.65;68.66;96834.80;109117;1273;26798;-81
2023/05/11 02:30:27;;;;;;;2.60;2.30;;;;;;;6.68;68.52;96835.19;109046;1273;23335;-81
2023/05/11 02:33:03;;;;;;;3.70;2.10;;;;;;;6.72;68.66;96834.33;109111;1273;22521;-81
2023/05/11 02:35:38;;;;;;;4.20;2.30;;;;;;;6.75;68.63;96832.61;109039;1273;25433;-81
2023/05/11 02:38:11;;;;;;;3.50;2.30;;;;;;;6.76;68.65;96830.95;109129;1273;22530;-81
2023/05/11 02:40:47;;;;;;;2.60;2.20;;;;;;;6.75;68.57;96829.83;109054;1273;22654;-81
2023/05/11 02:43:29;;;;;;;3.40;2.10;;;;;;;6.75;68.56;96826.08;109123;1266;25938;-82
2023/05/11 02:46:03;;;;;;;2.70;2.40;;;;;;;6.69;68.49;96831.03;109108;1273;22588;-81
2023/05/11 02:48:39;;;;;;;2.00;1.70;;;;;;;6.59;68.56;96831.81;109123;1273;22647;-81
2023/05/11 02:51:14;;;;;;;2.50;2.10;;;;;;;6.50;68.59;96829.77;109059;1273;23813;-81
2023/05/11 02:53:47;;;;;;;2.90;2.30;;;;;;;6.37;68.62;96830.30;109148;1273;22861;-81
2023/05/11 02:56:18;;;;;;;2.90;2.60;;;;;;;6.31;68.94;96830.23;109151;1266;22487;-81
2023/05/11 02:58:50;;;;;;;3.70;2.30;;;;;;;6.32;69.21;96832.45;109154;1265;22650;-81
2023/05/11 03:01:21;;;;;;;2.90;2.10;;;;;;;6.37;69.38;96836.80;109130;1273;22511;-81
2023/05/11 03:03:52;;;;;;;3.10;2.40;;;;;;;6.44;69.22;96830.44;109080;1273;24189;-81
2023/05/11 03:06:23;;;;;;;2.40;2.00;;;;;;;6.45;69.23;96834.13;109099;1273;25417;-81
2023/05/11 03:08:54;;;;;;;5.10;2.70;;;;;;;6.35;69.12;96835.23;109129;1270;24687;-81
2023/05/11 03:11:25;;;;;;;2.90;2.30;;;;;;;6.33;69.27;96835.48;109113;1273;22576;-81
2023/05/11 03:13:57;;;;;;;3.60;2.90;;;;;;;6.37;69.42;96836.00;109097;1273;22566;-81
2023/05/11 03:16:29;;;;;;;3.00;2.60;;;;;;;6.43;69.50;96837.06;109158;1267;23845;-81
2023/05/11 03:19:01;;;;;;;3.50;2.60;;;;;;;6.52;69.37;96834.64;109063;1273;22834;-81
2023/05/11 03:21:33;;;;;;;2.90;2.50;;;;;;;6.56;69.56;96831.47;109067;1273;22798;-81
2023/05/11 03:24:05;;;;;;;2.20;2.00;;;;;;;6.59;69.25;96829.86;109104;1273;25607;-81
2023/05/11 03:26:37;;;;;;;3.20;2.60;;;;;;;6.57;69.42;96834.64;109135;1273;23631;-82
2023/05/11 03:29:10;;;;;;;2.90;2.50;;;;;;;6.58;69.41;96833.86;109075;1267;22949;-82
2023/05/11 03:31:41;;;;;;;3.10;2.30;;;;;;;6.60;69.39;96834.25;109106;1273;22595;-82
2023/05/11 03:34:12;;;;;;;5.10;2.40;;;;;;;6.60;69.36;96834.14;109097;1273;23683;-82
2023/05/11 03:36:44;;;;;;;2.90;2.60;;;;;;;6.62;69.47;96838.56;109077;1273;23802;-82
2023/05/11 03:39:17;;;;;;;4.80;2.60;;;;;;;6.64;69.40;96835.26;109097;1266;22565;-82
2023/05/11 03:41:53;;;;;;;4.20;2.20;;;;;;;6.69;69.43;96835.83;109138;1262;22545;-82
2023/05/11 03:44:26;;;;;;;3.00;2.30;;;;;;;6.76;69.53;96838.48;109143;1270;24397;-83
2023/05/11 03:46:58;;;;;;;3.30;2.20;;;;;;;6.82;69.35;96842.60;109119;1273;22518;-82
2023/05/11 03:49:30;;;;;;;2.70;2.20;;;;;;;6.82;69.28;96843.51;109088;1273;22827;-83
2023/05/11 03:52:02;;;;;;;4.20;2.70;;;;;;;6.78;69.37;96843.63;109078;1251;22532;-82
2023/05/11 03:54:33;;;;;;;5.80;3.30;;;;;;;6.87;69.62;96842.33;109098;1273;23196;-82
2023/05/11 03:57:04;;;;;;;4.00;3.20;;;;;;;6.99;69.59;96842.66;109087;1273;22511;-82
2023/05/11 03:59:35;;;;;;;5.90;3.40;;;;;;;7.10;69.54;96839.09;109143;1266;22987;-82
2023/05/11 04:02:07;;;;;;;3.90;3.00;;;;;;;7.22;69.40;96840.45;109067;1273;25287;-82
2023/05/11 04:04:38;;;;;;;4.50;3.00;;;;;;;7.29;69.24;96840.39;108992;1270;176816;-83
2023/05/11 04:07:10;;;;;;;5.20;3.20;;;;;;;7.29;69.08;96839.98;109063;1273;22537;-83
2023/05/11 04:09:41;;;;;;;4.00;3.00;;;;;;;7.32;69.11;96840.58;109111;1273;23727;-82
2023/05/11 04:12:12;;;;;;;4.10;3.00;;;;;;;7.39;69.38;96842.70;109126;1266;22647;-83
2023/05/11 04:14:43;;;;;;;3.80;2.90;;;;;;;7.51;69.31;96844.11;109147;1273;23811;-83
2023/05/11 04:17:14;;;;;;;3.90;3.10;;;;;;;7.62;69.18;96842.68;109082;1273;22597;-82
2023/05/11 04:19:45;;;;;;;3.90;2.60;;;;;;;7.78;69.43;96842.77;109133;1262;22452;-82
2023/05/11 04:22:16;;;;;;;3.10;2.70;;;;;;;8.01;69.43;96844.83;109066;1266;22499;-83
2023/05/11 04:24:47;;;;;;;3.70;2.50;;;;;;;8.21;69.30;96842.12;109107;1273;22515;-83
2023/05/11 04:27:17;;;;;;;3.60;2.70;;;;;;;8.37;69.06;96841.52;109090;1266;22682;-83
2023/05/11 04:29:48;;;;;;;4.20;2.60;;;;;;;8.53;68.86;96841.60;109113;1262;22567;-83
2023/05/11 04:32:19;;;;;;;5.70;2.80;;;;;;;8.68;68.57;96842.61;109075;1273;22461;-83
2023/05/11 04:34:50;;;;;;;3.50;2.20;;;;;;;8.83;68.20;96839.78;109103;1265;22621;-82
2023/05/11 04:37:21;;;;;;;2.60;2.40;;;;;;;9.02;67.81;96842.58;109100;1273;22664;-82
2023/05/11 04:39:52;;;;;;;3.20;2.60;;;;;;;9.22;68.02;96840.59;109081;1273;22650;-82
2023/05/11 04:42:23;;;;;;;3.40;2.70;;;;;;;9.48;67.42;96837.75;109059;1262;22552;-82
2023/05/11 04:44:55;;;;;;;5.20;2.70;;;;;;;9.94;66.88;96835.58;109125;1266;22722;-82
2023/05/11 04:47:26;;;;;;;5.40;2.90;;;;;;;11.44;67.86;96839.19;109052;1273;24271;-83
2023/05/11 04:49:57;;;;;;;3.50;2.60;;;;;;;13.60;66.50;96837.19;109096;1273;22530;-83
2023/05/11 04:52:28;;;;;;;2.70;2.20;;;;;;;15.64;62.45;96832.12;109072;1270;22610;-81
2023/05/11 04:54:59;;;;;;;3.30;2.20;;;;;;;17.21;58.97;96835.21;109104;1266;23358;-81
2023/05/11 04:57:30;;;;;;;3.60;2.30;;;;;;;18.34;56.17;96831.05;109093;1273;23123;-81
2023/05/11 05:00:01;;;;;;;3.30;3.00;;;;;;;20.02;55.10;96829.30;109052;1273;22580;-83
2023/05/11 05:02:32;;;;;;;3.20;2.10;;;;;;;21.69;52.56;96834.81;109074;1273;22572;-83
2023/05/11 05:05:03;;;;;;;2.50;2.30;;;;;;;23.39;50.10;96830.50;109097;1269;22482;-83
2023/05/11 05:07:34;;;;;;;1.90;1.70;;;;;;;24.17;46.43;96833.16;109085;1273;25300;-83
2023/05/11 05:10:07;;;;;;;3.50;2.30;;;;;;;24.79;44.13;96834.88;109121;1266;24230;-83
2023/05/11 05:12:38;;;;;;;3.90;2.10;;;;;;;25.36;42.75;96836.00;109088;1273;22518;-84
2023/05/11 05:15:11;;;;;;;2.90;2.20;;;;;;;26.38;41.32;96839.14;109135;1273;22543;-83
2023/05/11 05:17:42;;;;;;;3.30;2.00;;;;;;;27.26;39.57;96838.91;109126;1273;22519;-83
2023/05/11 05:20:13;;;;;;;4.20;2.30;;;;;;;27.76;37.91;96833.86;109069;1273;25023;-83
2023/05/11 05:22:44;;;;;;;2.10;1.80;;;;;;;28.46;37.02;96833.31;109129;1273;25430;-83
2023/05/11 05:25:16;;;;;;;4.40;1.90;;;;;;;29.39;35.76;96832.40;109075;1273;22516;-83
2023/05/11 05:27:47;;;;;;;3.20;1.90;;;;;;;29.94;34.44;96831.86;109043;1266;22522;-84
2023/05/11 05:30:17;;;;;;;3.00;2.10;;;;;;;30.61;33.73;96833.67;109115;1266;23855;-84
2023/05/11 05:32:49;;;;;;;2.90;1.90;;;;;;;31.44;32.46;96837.80;109122;1273;22547;-84
2023/05/11 05:35:20;;;;;;;3.00;2.00;;;;;;;32.04;30.77;96839.56;109102;1265;22748;-84
2023/05/11 05:37:51;;;;;;;3.10;2.00;;;;;;;31.56;28.52;96841.73;109099;1273;22563;-84
2023/05/11 05:40:22;;;;;;;3.50;2.00;;;;;;;31.35;28.87;96841.60;109085;1273;24163;-84
2023/05/11 05:42:53;;;;;;;4.70;2.40;;;;;;;31.96;29.10;96838.73;109118;1273;22549;-84
2023/05/11 05:45:24;;;;;;;2.80;2.40;;;;;;;32.36;27.56;96837.86;109099;1273;22529;-84
2023/05/11 05:47:55;;;;;;;5.30;2.50;;;;;;;32.81;27.99;96840.04;109093;1266;22483;-84
2023/05/11 05:50:26;;;;;;;3.00;2.60;;;;;;;33.41;27.39;96838.25;109104;1273;25406;-84
2023/05/11 05:52:57;;;;;;;2.40;2.20;;;;;;;34.08;27.01;96835.61;109086;1273;25414;-84
2023/05/11 05:55:28;;;;;;;3.50;2.30;;;;;;;35.14;26.69;96837.20;109131;1273;22679;-84
2023/05/11 05:57:59;;;;;;;4.00;2.00;;;;;;;36.08;25.91;96838.48;109096;1273;25303;-84
2023/05/11 06:00:30;;;;;;;2.50;1.90;;;;;;;36.79;25.31;96838.27;109049;1273;25239;-84
2023/05/11 06:03:01;;;;;;;2.70;2.00;;;;;;;37.43;24.41;96835.02;109067;1273;22628;-84
2023/05/11 06:05:32;;;;;;;2.60;1.80;;;;;;;37.29;23.67;96834.23;109118;1268;22662;-84
2023/05/11 06:08:03;;;;;;;2.90;1.60;;;;;;;37.44;22.90;96836.48;109080;1273;22504;-84
2023/05/11 06:10:34;;;;;;;2.30;1.70;;;;;;;37.39;22.57;96835.06;109028;1273;22831;-82
2023/05/11 06:13:05;;;;;;;2.50;1.70;;;;;;;37.82;22.32;96837.91;109113;1273;25443;-82
2023/05/11 06:15:36;;;;;;;1.60;1.50;;;;;;;38.39;22.07;96834.70;109104;1273;25291;-82
2023/05/11 06:18:07;;;;;;;3.10;1.70;;;;;;;38.65;20.80;96831.58;109114;1273;22530;-83
2023/05/11 06:20:38;;;;;;;1.60;1.40;;;;;;;37.46;20.27;96828.96;109129;1273;22539;-82
2023/05/11 06:23:09;;;;;;;2.20;1.80;;;;;;;37.28;20.86;96829.67;109189;1273;22514;-83
2023/05/11 06:25:41;;;;;;;1.90;1.40;;;;;;;38.57;21.12;96830.95;109090;1273;22510;-83
2023/05/11 06:28:12;;;;;;;3.60;1.50;;;;;;;39.71;20.64;96835.92;109120;1271;22502;-83
2023/05/11 06:30:43;;;;;;;3.20;1.60;;;;;;;40.29;20.02;96838.97;109060;1267;22507;-83
2023/05/11 06:33:13;;;;;;;2.70;1.70;;;;;;;40.86;19.90;96839.81;109126;1269;22540;-83
2023/05/11 06:35:45;;;;;;;2.60;1.70;;;;;;;41.68;19.04;96838.40;109102;1266;24245;-83
2023/05/11 06:38:16;;;;;;;2.00;1.60;;;;;;;41.39;17.69;96839.78;109055;1273;22641;-83
2023/05/11 06:40:47;;;;;;;1.60;1.50;;;;;;;40.14;16.57;96840.60;109051;1249;22731;-83
2023/05/11 06:43:18;;;;;;;2.70;1.80;;;;;;;39.56;18.34;96831.41;109053;1273;25288;-83
2023/05/11 06:45:49;;;;;;;3.80;1.60;;;;;;;40.46;18.33;96837.59;109106;1273;22511;-83
2023/05/11 06:48:22;;;;;;;2.30;1.70;;;;;;;41.18;18.42;96837.66;109124;1273;22526;-83
2023/05/11 06:50:53;;;;;;;5.20;1.80;;;;;;;41.89;18.15;96828.48;109110;1273;22538;-83
2023/05/11 06:53:24;;;;;;;3.70;1.70;;;;;;;42.80;17.73;96830.80;109088;1273;22511;-83
2023/05/11 06:55:55;;;;;;;2.40;1.50;;;;;;;42.70;15.32;96830.01;109057;1273;22527;-83
2023/05/11 06:58:26;;;;;;;1.30;1.10;;;;;;;41.35;14.06;96829.17;109098;1270;25297;-83
2023/05/11 07:00:57;;;;;;;1.10;1.10;;;;;;;37.88;12.12;96825.13;109095;1273;22469;-83
2023/05/11 07:03:28;;;;;;;1.50;0.90;;;;;;;34.17;13.31;96820.42;109145;1273;22588;-83
2023/05/11 07:05:59;;;;;;;2.60;1.00;;;;;;;31.91;14.66;96824.98;109139;1273;22648;-83
2023/05/11 07:08:30;;;;;;;1.10;1.00;;;;;;;30.80;15.40;96822.41;109113;1269;24311;-83
2023/05/11 07:11:01;;;;;;;2.50;1.30;;;;;;;30.11;16.24;96818.33;109065;1273;22651;-83
2023/05/11 07:13:32;;;;;;;2.70;1.50;;;;;;;29.40;16.18;96823.18;109090;1270;25437;-83
2023/05/11 07:16:03;;;;;;;1.90;1.50;;;;;;;29.50;16.20;96822.15;109064;1273;22663;-82
2023/05/11 07:18:36;;;;;;;2.10;1.20;;;;;;;29.88;16.37;96817.20;109106;1269;22519;-83
2023/05/11 07:21:07;;;;;;;1.50;1.30;;;;;;;30.08;16.43;96822.10;109045;1250;22539;-82
2023/05/11 07:23:38;;;;;;;1.10;0.80;;;;;;;30.32;16.85;96823.11;109111;1273;22572;-82
2023/05/11 07:26:09;;;;;;;1.20;0.90;;;;;;;31.16;15.95;96822.39;109143;1273;22648;-83
2023/05/11 07:28:40;;;;;;;1.40;0.80;;;;;;;31.57;16.15;96815.50;109080;1266;22636;-83
2023/05/11 07:31:11;;;;;;;1.20;1.10;;;;;;;32.88;16.18;96811.41;109092;1265;22552;-83
2023/05/11 07:33:42;;;;;;;1.80;1.20;;;;;;;34.39;15.35;96811.79;109109;1266;22935;-83
2023/05/11 07:36:14;;;;;;;1.40;1.00;;;;;;;34.55;14.14;96811.46;109106;1266;22566;-83
2023/05/11 07:38:45;;;;;;;1.20;1.10;;;;;;;34.00;14.38;96814.58;109127;1266;22529;-83
2023/05/11 07:41:18;;;;;;;1.00;0.80;;;;;;;32.94;13.92;96812.41;109046;1265;22516;-83
2023/05/11 07:43:48;;;;;;;0.90;0.80;;;;;;;32.16;14.63;96817.05;109114;1265;24635;-83
2023/05/11 07:46:19;;;;;;;0.90;0.90;;;;;;;30.97;15.36;96822.70;109077;1273;22511;-83
2023/05/11 07:48:51;;;;;;;1.10;0.90;;;;;;;30.34;16.21;96824.66;109112;1273;22523;-83
2023/05/11 07:51:22;;;;;;;1.20;1.00;;;;;;;30.44;15.67;96822.39;109091;1273;22522;-83
2023/05/11 07:53:53;;;;;;;1.90;1.10;;;;;;;30.56;15.68;96818.38;109118;1273;22559;-83
2023/05/11 07:56:23;;;;;;;1.20;0.90;;;;;;;32.02;14.70;96818.73;109081;1266;23860;-83
2023/05/11 07:58:54;;;;;;;1.50;1.20;;;;;;;32.29;15.73;96816.23;109090;1273;22647;-83
2023/05/11 08:01:25;;;;;;;0.70;0.70;;;;;;;33.60;15.88;96813.34;109072;1270;22647;-83
2023/05/11 08:03:56;;;;;;;2.00;0.90;;;;;;;35.11;15.26;96811.62;109111;1269;25226;-83
2023/05/11 08:06:27;;;;;;;1.70;1.00;;;;;;;35.99;14.74;96810.23;109132;1273;22566;-83
2023/05/11 08:08:58;;;;;;;1.10;1.00;;;;;;;35.71;13.37;96815.05;109114;1260;22525;-83
2023/05/11 08:11:29;;;;;;;2.70;1.00;;;;;;;34.95;14.85;96811.90;109058;1273;22521;-84
2023/05/11 08:14:00;;;;;;;1.20;1.00;;;;;;;34.10;13.57;96815.86;109084;1253;22552;-83
2023/05/11 08:16:31;;;;;;;1.40;1.10;;;;;;;32.10;14.74;96813.58;109090;1273;23808;-83
2023/05/11 08:19:01;;;;;;;1.50;0.80;;;;;;;31.11;15.73;96816.88;109148;1266;22523;-83
2023/05/11 08:21:32;;;;;;;0.80;0.80;;;;;;;30.78;15.92;96814.55;109021;1270;22533;-83
2023/05/11 08:24:04;;;;;;;1.10;1.00;;;;;;;30.90;16.63;96810.90;109109;1266;22538;-82
2023/05/11 08:26:35;;;;;;;1.30;1.10;;;;;;;30.46;17.50;96814.33;109122;1273;23824;-82
2023/05/11 08:29:05;;;;;;;2.50;1.20;;;;;;;30.36;17.96;96809.02;109090;1273;24270;-82
2023/05/11 08:31:37;;;;;;;1.90;1.30;;;;;;;31.06;18.10;96809.19;109054;1273;22517;-82
2023/05/11 08:34:08;;;;;;;1.30;1.00;;;;;;;30.55;17.98;96811.84;109065;1269;24241;-82
2023/05/11 08:36:39;;;;;;;2.90;1.40;;;;;;;30.48;18.14;96809.39;109122;1273;22577;-82
2023/05/11 08:39:10;;;;;;;1.90;1.30;;;;;;;31.35;18.41;96796.57;109111;1273;22546;-83
2023/05/11 08:41:41;;;;;;;2.50;1.50;;;;;;;31.61;17.99;96811.06;109061;1273;22561;-83
2023/05/11 08:44:15;;;;;;;2.10;1.20;;;;;;;31.86;16.76;96804.02;109094;1270;22553;-82
2023/05/11 08:46:48;;;;;;;2.00;1.40;;;;;;;31.41;17.42;96801.27;109138;1270;22601;-82
2023/05/11 08:49:20;;;;;;;2.50;1.30;;;;;;;30.59;17.98;96795.23;109160;1262;22694;-84
2023/05/11 08:51:52;;;;;;;3.80;1.50;;;;;;;30.41;18.36;96800.69;109089;1273;22513;-84
2023/05/11 08:54:23;;;;;;;1.30;1.20;;;;;;;29.88;18.29;96800.63;109092;1262;22976;-85
2023/05/11 08:56:54;;;;;;;1.60;1.30;;;;;;;26.46;21.16;96800.04;109073;1273;22569;-84
2023/05/11 08:59:27;;;;;;;2.00;1.10;;;;;;;24.43;23.31;96795.67;109098;1273;22514;-84
2023/05/11 09:01:59;;;;;;;2.10;1.60;;;;;;;24.28;23.74;96799.45;109104;1266;22692;-84
2023/05/11 09:04:31;;;;;;;1.50;1.20;;;;;;;25.09;23.19;96797.89;109104;1273;22692;-84
2023/05/11 09:07:04;;;;;;;1.70;1.30;;;;;;;23.16;24.44;96805.16;109145;1266;22655;-84
2023/05/11 09:09:36;;;;;;;2.40;1.80;;;;;;;21.95;26.59;96802.83;109113;1273;22641;-84
2023/05/11 09:12:07;;;;;;;1.50;1.30;;;;;;;21.58;27.96;96800.91;109087;1266;22624;-84
2023/05/11 09:14:38;;;;;;;2.00;1.50;;;;;;;20.25;29.55;96808.04;109068;1273;24192;-84
2023/05/11 09:17:09;;;;;;;2.00;1.80;;;;;;;19.44;30.33;96809.55;109058;1273;22661;-84
2023/05/11 09:19:59;;;;;;;2.80;1.70;;;;;;;18.78;30.64;96812.19;109133;1269;22518;-84
2023/05/11 09:22:31;;;;;;;2.30;1.80;;;;;;;18.61;31.43;96804.63;109088;1273;22801;-84
2023/05/11 09:25:03;;;;;;;2.60;2.10;;;;;;;18.90;32.71;96802.69;109095;1266;22612;-83
2023/05/11 09:27:34;;;;;;;1.80;1.50;;;;;;;19.00;31.49;96806.89;109123;1273;22685;-84
2023/05/11 09:30:15;;;;;;;2.40;1.40;;;;;;;18.91;31.82;96805.88;109058;1273;22548;-84
2023/05/11 09:32:54;;;;;;;1.80;1.50;;;;;;;18.67;32.30;96810.31;109130;1266;22552;-83
2023/05/11 09:35:27;;;;;;;1.70;1.20;;;;;;;18.61;32.28;96813.21;109101;1273;22518;-84
2023/05/11 09:38:07;;;;;;;1.80;1.70;;;;;;;18.54;31.71;96810.71;109115;1269;23795;-83
2023/05/11 09:40:41;;;;;;;2.10;1.30;;;;;;;18.59;32.04;96809.27;109094;1272;22556;-84
2023/05/11 09:43:20;;;;;;;2.70;1.80;;;;;;;18.51;32.51;96803.73;109069;1273;22559;-84
2023/05/11 09:45:52;;;;;;;1.90;1.50;;;;;;;18.85;32.36;96798.40;109138;1273;22553;-84
2023/05/11 09:48:31;;;;;;;1.80;1.40;;;;;;;19.32;32.58;96800.16;109098;1273;24192;-83
2023/05/11 09:51:04;;;;;;;3.00;1.60;;;;;;;19.50;32.73;96802.46;109102;1273;24362;-84
2023/05/11 09:53:41;;;;;;;2.50;1.60;;;;;;;19.40;32.49;96797.88;109104;1269;23100;-83
2023/05/11 09:56:14;;;;;;;4.10;1.60;;;;;;;19.20;31.29;96794.64;109063;1269;22551;-83
2023/05/11 09:58:51;;;;;;;2.30;1.60;;;;;;;19.43;32.32;96790.91;109095;1273;25942;-84
2023/05/11 10:01:32;;;;;;;1.70;1.40;;;;;;;19.36;31.07;96793.38;109103;1273;22524;-83
2023/05/11 10:04:04;;;;;;;3.70;1.30;;;;;;;19.13;31.63;96785.08;109111;1273;22555;-84
2023/05/11 10:06:47;;;;;;;2.00;1.40;;;;;;;18.69;31.12;96786.66;109131;1273;23809;-84
2023/05/11 10:09:23;;;;;;;2.50;1.20;;;;;;;18.18;32.00;96788.66;109158;1273;24248;-84
2023/05/11 10:11:55;;;;;;;1.70;1.20;;;;;;;18.01;32.19;96788.41;109048;1271;22552;-84
2023/05/11 10:14:28;;;;;;;1.70;1.30;;;;;;;18.03;32.94;96781.05;109081;1273;22498;-84
2023/05/11 10:17:01;;;;;;;1.90;1.40;;;;;;;18.23;32.63;96767.92;109130;1273;25290;-81
2023/05/11 10:19:32;;;;;;;1.20;1.10;;;;;;;18.35;32.97;96781.05;109081;1269;23626;-81
2023/05/11 10:22:05;;;;;;;2.30;1.40;;;;;;;18.28;31.64;96777.54;109061;1273;26072;-82
2023/05/11 10:24:36;;;;;;;1.90;1.40;;;;;;;18.07;31.40;96781.06;109134;1273;24209;-82
2023/05/11 10:27:08;;;;;;;3.20;1.60;;;;;;;17.90;32.01;96775.27;109117;1270;22562;-81
2023/05/11 10:29:40;;;;;;;1.80;1.40;;;;;;;17.96;33.86;96775.88;109093;1273;22521;-82
2023/05/11 10:32:12;;;;;;;2.10;1.40;;;;;;;18.04;32.01;96777.75;109047;1266;27300;-81
2023/05/11 10:34:43;;;;;;;2.30;1.40;;;;;;;18.22;32.38;96763.95;109117;1270;25421;-81
2023/05/11 10:37:15;;;;;;;3.20;1.40;;;;;;;18.60;32.46;96761.92;109083;1274;22510;-82
2023/05/11 10:39:48;;;;;;;1.50;1.30;;;;;;;18.63;31.57;96762.73;109061;1273;25222;-81
2023/05/11 10:42:36;;;;;;;3.50;1.30;;;;;;;18.31;31.19;96764.02;109058;1273;22543;-82
2023/05/11 10:45:16;;;;;;;1.30;1.20;;;;;;;18.01;32.29;96763.36;109134;1273;24235;-82
2023/05/11 10:48:35;;;;;;;2.90;1.20;;;;;;;17.94;32.80;96765.09;109090;1270;24411;-82
2023/05/11 10:51:23;;;;;;;1.70;1.30;;;;;;;18.13;32.46;96756.42;109097;1266;24203;-81
2023/05/11 10:54:06;;;;;;;3.50;1.50;;;;;;;18.51;32.57;96754.52;109113;1273;22542;-81
2023/05/11 10:56:56;;;;;;;2.30;1.60;;;;;;;18.84;32.64;96746.98;109178;1273;25332;-81
2023/05/11 11:00:08;;;;;;;1.20;1.10;;;;;;;18.78;31.65;96742.73;109114;1270;22475;-81
2023/05/11 11:02:40;;;;;;;3.10;1.80;;;;;;;18.28;31.75;96739.83;109106;1268;22611;-81
2023/05/11 11:05:16;;;;;;;2.80;1.70;;;;;;;18.27;33.11;96740.32;109134;1269;22609;-82
2023/05/11 11:08:02;;;;;;;2.40;1.70;;;;;;;18.21;32.38;96739.08;109129;1273;25440;-81
2023/05/11 11:10:35;;;;;;;2.50;1.40;;;;;;;18.11;33.30;96730.58;109090;1266;25274;-81
2023/05/11 11:13:08;;;;;;;3.40;1.40;;;;;;;18.19;33.06;96731.11;109085;1272;23811;-84
2023/05/11 11:16:13;;;;;;;1.60;1.30;;;;;;;18.20;33.48;96729.56;109125;1273;22586;-84
2023/05/11 11:18:44;;;;;;;3.10;1.40;;;;;;;18.29;32.96;96737.02;109120;1272;24517;-84
2023/05/11 11:21:35;;;;;;;1.60;1.30;;;;;;;18.15;32.70;96737.48;109138;1270;22505;-84
2023/05/11 11:24:06;;;;;;;2.00;1.40;;;;;;;18.08;33.39;96729.05;109163;1273;24180;-82
2023/05/11 11:26:50;;;;;;;1.90;1.70;;;;;;;18.20;32.78;96729.77;109249;1271;22617;-82
2023/05/11 11:29:21;;;;;;;2.50;1.40;;;;;;;18.29;33.88;96712.36;109306;1250;22552;-82
2023/05/11 11:31:52;;;;;;;2.60;1.30;;;;;;;18.48;32.86;96719.36;109115;1271;24189;-81
2023/05/11 11:34:36;;;;;;;1.20;1.00;;;;;;;18.32;31.97;96739.13;109191;1269;23156;-82
2023/05/11 11:37:08;;;;;;;2.50;1.60;;;;;;;17.88;32.20;96736.92;109107;1273;22530;-82
2023/05/11 11:39:59;;;;;;;2.40;1.20;;;;;;;17.86;34.12;96739.84;109099;1273;24195;-82
2023/05/11 11:42:40;;;;;;;2.50;1.70;;;;;;;18.09;34.01;96735.95;109110;1266;22525;-82
2023/05/11 11:45:34;;;;;;;2.70;1.60;;;;;;;18.17;34.23;96729.63;109103;1273;23423;-82
2023/05/11 11:48:13;;;;;;;2.40;1.90;;;;;;;18.32;33.60;96724.95;109014;1273;23325;-82
2023/05/11 11:50:46;;;;;;;3.10;1.70;;;;;;;18.40;34.28;96726.18;109103;1273;23337;-82
2023/05/11 11:53:47;;;;;;;3.30;1.40;;;;;;;18.53;34.61;96722.54;109116;1273;24420;-82
2023/05/11 11:56:38;;;;;;;2.80;1.60;;;;;;;18.75;33.73;96731.95;108999;1273;22548;-82
2023/05/11 11:59:12;;;;;;;2.10;1.30;;;;;;;18.50;34.11;96731.25;109116;1273;22461;-83